createdAt,value
2023-03-29T00:03:23.713Z,13.70
2023-03-29T00:08:00.412Z,15.90
2023-03-29T00:11:48.427Z,12.60
2023-03-29T00:15:36.400Z,11.90
2023-03-29T00:19:23.866Z,12.50
2023-03-29T00:23:11.411Z,10.60
2023-03-29T00:27:00.666Z,9.40
2023-03-29T00:30:49.039Z,17.20
2023-03-29T00:34:37.479Z,13.40
2023-03-29T00:46:19.330Z,16.50
2023-03-29T00:49:48.202Z,12.50
2023-03-29T00:53:29.737Z,12.10
2023-03-29T00:57:10.564Z,11.10
2023-03-29T01:00:50.977Z,12.20
2023-03-29T01:04:31.007Z,12.30
2023-03-29T01:20:39.907Z,9.50
2023-03-29T01:36:20.717Z,8.60
2023-03-29T01:40:09.843Z,7.90
2023-03-29T01:44:04.756Z,7.60
2023-03-29T01:47:53.306Z,8.30
2023-03-29T01:59:46.324Z,9.60
2023-03-29T02:03:33.965Z,10.60
2023-03-29T02:07:21.758Z,11.50
2023-03-29T02:18:34.971Z,9.20
2023-03-29T02:21:05.062Z,7.10
2023-03-29T02:24:30.219Z,7.80
2023-03-29T02:28:19.398Z,6.80
2023-03-29T02:32:11.306Z,7.60
2023-03-29T02:36:10.083Z,8.60
2023-03-29T02:51:38.698Z,10.50
2023-03-29T02:55:22.659Z,9.40
2023-03-29T02:59:11.798Z,9.20
2023-03-29T03:02:43.533Z,9.50
2023-03-29T03:06:25.702Z,9.40
2023-03-29T03:13:42.306Z,11.40
2023-03-29T03:33:01.221Z,13.00
2023-03-29T03:36:52.620Z,12.80
2023-03-29T03:40:41.873Z,12.70
2023-03-29T03:44:31.133Z,12.50
2023-03-29T04:00:16.484Z,20.10
2023-03-29T04:03:07.907Z,15.50
2023-03-29T04:06:57.120Z,17.30
2023-03-29T04:10:46.382Z,14.80
2023-03-29T04:14:35.452Z,16.70
2023-03-29T04:18:30.252Z,18.60
2023-03-29T04:22:19.657Z,17.80
2023-03-29T04:25:52.627Z,18.50
2023-03-29T04:29:45.362Z,16.60
2023-03-29T04:32:54.513Z,19.60
2023-03-29T04:36:25.343Z,23.30
2023-03-29T04:39:34.723Z,19.40
2023-03-29T04:42:19.403Z,23.00
2023-03-29T04:48:12.952Z,23.10
2023-03-29T04:51:45.170Z,27.80
2023-03-29T04:54:51.953Z,30.20
2023-03-29T04:58:32.270Z,41.40
2023-03-29T05:02:10.243Z,40.00
2023-03-29T05:05:18.587Z,35.10
2023-03-29T05:09:08.542Z,39.20
2023-03-29T05:12:40.472Z,24.30
2023-03-29T05:15:58.213Z,26.20
2023-03-29T05:19:26.232Z,34.40
2023-03-29T05:22:41.230Z,27.20
2023-03-29T05:26:16.315Z,20.90
2023-03-29T05:29:29.784Z,22.10
2023-03-29T05:32:38.261Z,22.70
2023-03-29T05:36:16.459Z,23.00
2023-03-29T05:42:06.101Z,24.20
2023-03-29T05:44:55.605Z,20.80
2023-03-29T05:47:37.002Z,24.40
2023-03-29T05:51:08.206Z,26.10
2023-03-29T05:53:53.720Z,28.70
2023-03-29T05:57:32.805Z,27.80
2023-03-29T06:00:37.495Z,29.00
2023-03-29T06:04:06.372Z,28.00
2023-03-29T06:07:13.281Z,20.60
2023-03-29T06:10:25.486Z,10.10
2023-03-29T06:13:59.299Z,9.80
2023-03-29T06:16:53.139Z,5.30
2023-03-29T06:20:09.907Z,4.40
2023-03-29T06:22:55.040Z,4.90
2023-03-29T06:25:27.788Z,4.10
2023-03-29T06:28:44.639Z,5.10
2023-03-29T06:32:13.875Z,4.40
2023-03-29T06:35:50.066Z,7.10
2023-03-29T06:39:29.619Z,11.50
2023-03-29T06:43:01.205Z,8.70
2023-03-29T06:46:54.358Z,8.80
2023-03-29T06:50:15.500Z,5.90
2023-03-29T07:27:03.471Z,3.30
2023-03-29T07:30:54.764Z,3.40
2023-03-29T07:34:32.691Z,5.20
2023-03-29T07:38:18.950Z,6.80
2023-03-29T08:01:21.560Z,2.90
2023-03-29T08:04:48.284Z,3.00
2023-03-29T08:08:37.486Z,2.40
2023-03-29T08:12:29.482Z,2.80
2023-03-29T08:15:59.051Z,2.90
2023-03-29T08:19:59.582Z,3.00
2023-03-29T08:23:53.790Z,3.40
2023-03-29T08:27:25.248Z,4.00
2023-03-29T08:34:50.479Z,3.10
2023-03-29T09:06:31.346Z,2.80
2023-03-29T09:10:15.024Z,3.10
2023-03-29T09:13:37.019Z,2.80
2023-03-29T09:17:00.620Z,2.70
2023-03-29T09:21:10.370Z,3.10
2023-03-29T09:24:58.418Z,2.40
2023-03-29T09:32:37.577Z,3.00
2023-03-29T09:36:44.785Z,3.00
2023-03-29T09:40:23.921Z,2.50
2023-03-29T09:48:11.916Z,3.40
2023-03-29T09:59:50.138Z,2.80
2023-03-29T10:03:37.725Z,4.70
2023-03-29T10:19:12.033Z,3.60
2023-03-29T10:22:59.639Z,3.10
2023-03-29T10:26:41.346Z,3.20
2023-03-29T10:30:30.637Z,3.70
2023-03-29T10:34:11.740Z,2.60
2023-03-29T10:38:01.281Z,3.10
2023-03-29T10:41:43.973Z,2.90
2023-03-29T10:45:13.056Z,3.30
2023-03-29T10:48:08.903Z,3.20
2023-03-29T10:51:35.590Z,2.80
2023-03-29T10:55:16.855Z,3.60
2023-03-29T10:58:57.644Z,3.80
2023-03-29T11:02:49.762Z,3.00
2023-03-29T11:06:14.692Z,3.30
2023-03-29T11:09:48.190Z,3.60
2023-03-29T11:13:44.311Z,4.70
2023-03-29T11:33:03.908Z,3.40
2023-03-29T11:36:29.094Z,3.30
2023-03-29T11:40:30.015Z,3.40
2023-03-29T11:44:24.040Z,3.40
2023-03-29T11:47:59.746Z,4.40
2023-03-29T12:03:44.754Z,3.20
2023-03-29T12:07:18.730Z,3.90
2023-03-29T12:10:44.721Z,3.70
2023-03-29T12:13:52.570Z,2.80
2023-03-29T12:23:20.711Z,4.40
2023-03-29T12:26:52.674Z,4.80
2023-03-29T12:30:27.365Z,5.50
2023-03-29T12:34:02.947Z,4.00
2023-03-29T12:37:33.392Z,3.70
2023-03-29T12:59:41.150Z,5.80
2023-03-29T13:03:27.647Z,3.10
2023-03-29T13:07:02.619Z,2.80
2023-03-29T13:22:07.045Z,3.10
2023-03-29T13:25:49.203Z,3.60
2023-03-29T13:30:02.118Z,5.60
2023-03-29T13:33:42.407Z,3.80
2023-03-29T13:37:32.829Z,4.70
2023-03-29T13:41:34.443Z,3.60
2023-03-29T13:45:36.845Z,2.90
2023-03-29T13:52:37.350Z,3.60
2023-03-29T13:56:28.993Z,4.80
2023-03-29T14:00:19.562Z,5.00
2023-03-29T14:34:54.152Z,3.60
2023-03-29T14:38:24.685Z,2.90
2023-03-29T14:42:14.305Z,4.00
2023-03-29T14:45:46.591Z,3.10
2023-03-29T14:49:06.800Z,3.50
2023-03-29T14:52:50.322Z,4.40
2023-03-29T14:56:24.719Z,5.50
2023-03-29T14:59:47.125Z,5.60
2023-03-29T15:03:31.090Z,5.10
2023-03-29T15:06:44.282Z,4.20
2023-03-29T15:25:50.868Z,5.50
2023-03-29T15:29:30.107Z,3.30
2023-03-29T15:33:14.789Z,6.00
2023-03-29T15:36:45.662Z,4.40
2023-03-29T15:39:53.173Z,7.20
2023-03-29T15:43:27.112Z,9.90
2023-03-29T15:46:58.765Z,7.00
2023-03-29T15:54:04.384Z,3.80
2023-03-29T15:56:45.127Z,5.10
2023-03-29T15:59:13.686Z,13.60
2023-03-29T16:02:28.545Z,5.00
2023-03-29T16:05:57.393Z,4.90
2023-03-29T16:09:35.701Z,6.90
2023-03-29T16:12:37.905Z,6.60
2023-03-29T16:16:05.332Z,7.50
2023-03-29T16:19:16.010Z,8.50
2023-03-29T16:23:07.963Z,7.70
2023-03-29T16:26:39.800Z,8.60
2023-03-29T16:30:42.129Z,5.40
2023-03-29T16:34:29.764Z,6.10
2023-03-29T16:37:52.056Z,6.00
2023-03-29T16:41:23.629Z,4.20
2023-03-29T16:45:13.093Z,7.30
2023-03-29T16:48:45.970Z,7.70
2023-03-29T16:51:55.222Z,6.60
2023-03-29T16:55:43.083Z,6.00
2023-03-29T16:59:12.636Z,5.30
2023-03-29T17:02:42.095Z,5.70
2023-03-29T17:06:27.800Z,10.90
2023-03-29T17:10:10.509Z,7.30
2023-03-29T17:13:59.778Z,9.40
2023-03-29T17:17:49.237Z,6.60
2023-03-29T17:22:05.972Z,8.50
2023-03-29T17:25:30.849Z,8.80
2023-03-29T17:29:23.422Z,5.80
2023-03-29T17:33:12.646Z,9.10
2023-03-29T17:40:57.539Z,30.90
2023-03-29T17:44:46.523Z,106.60
2023-03-29T17:48:35.761Z,30.40
2023-03-29T17:52:25.366Z,11.10
2023-03-29T17:56:14.512Z,33.80
2023-03-29T17:59:52.444Z,29.50
2023-03-29T18:03:32.578Z,82.20
2023-03-29T18:07:21.617Z,80.00
2023-03-29T18:10:50.851Z,68.90
2023-03-29T18:18:47.686Z,48.50
2023-03-29T18:22:36.978Z,32.70
2023-03-29T18:26:26.921Z,42.10
2023-03-29T18:30:16.158Z,25.80
2023-03-29T18:34:05.295Z,21.80
2023-03-29T18:37:54.591Z,41.90
2023-03-29T18:41:46.416Z,43.90
2023-03-29T18:45:35.924Z,21.40
2023-03-29T18:49:17.975Z,14.70
2023-03-29T18:53:07.976Z,13.70
2023-03-29T18:56:59.383Z,9.70
2023-03-29T19:12:40.491Z,17.00
2023-03-29T19:16:23.864Z,13.80
2023-03-29T19:20:13.332Z,12.00
2023-03-29T19:23:51.726Z,8.60
2023-03-29T19:27:40.758Z,8.80
2023-03-29T19:31:29.858Z,8.10
2023-03-29T19:35:19.135Z,8.20
2023-03-29T19:39:08.316Z,8.30
2023-03-29T19:42:36.170Z,8.50
2023-03-29T19:46:08.347Z,6.60
2023-03-29T19:49:50.522Z,7.50
2023-03-29T19:52:39.065Z,8.90
2023-03-29T19:55:42.393Z,8.00
2023-03-29T19:59:19.862Z,7.80
2023-03-29T20:02:17.217Z,6.70
2023-03-29T20:05:42.207Z,6.80
2023-03-29T20:09:14.456Z,6.80
2023-03-29T20:12:57.709Z,9.30
2023-03-29T20:16:46.916Z,12.60
2023-03-29T20:20:36.483Z,20.30
2023-03-29T20:24:25.900Z,10.10
2023-03-29T20:28:15.122Z,8.00
2023-03-29T20:32:04.285Z,9.00
2023-03-29T20:35:53.719Z,7.50
2023-03-29T20:39:37.545Z,10.00
2023-03-29T20:43:26.815Z,12.80
2023-03-29T20:47:24.910Z,21.90
2023-03-29T20:51:14.139Z,13.30
2023-03-29T20:55:03.185Z,8.90
2023-03-29T20:58:52.791Z,15.10
2023-03-29T21:02:41.867Z,7.10
2023-03-29T21:06:31.089Z,6.60
2023-03-29T21:10:20.315Z,7.00
2023-03-29T21:18:05.266Z,7.30
2023-03-29T21:21:47.211Z,10.80
2023-03-29T21:25:36.178Z,8.10
2023-03-29T21:29:24.650Z,5.70
2023-03-29T21:32:38.678Z,6.60
2023-03-29T21:36:27.656Z,5.20
2023-03-29T21:40:44.102Z,6.90
2023-03-29T21:44:34.245Z,7.30
2023-03-29T21:51:45.501Z,6.00
2023-03-29T21:55:34.566Z,5.60
2023-03-29T21:59:23.550Z,6.60
2023-03-29T22:03:12.577Z,4.60
2023-03-29T22:07:00.143Z,6.00
2023-03-29T22:22:19.847Z,8.00
2023-03-29T22:26:08.982Z,7.50
2023-03-29T22:29:58.153Z,5.30
2023-03-29T22:33:47.055Z,5.40
2023-03-29T22:36:37.159Z,4.30
2023-03-29T22:39:45.773Z,4.50
2023-03-29T23:10:31.984Z,4.40
2023-03-29T23:14:21.334Z,3.70
2023-03-29T23:18:10.471Z,4.00
2023-03-29T23:21:59.762Z,3.80
2023-03-29T23:25:48.989Z,4.10
2023-03-29T23:29:38.125Z,3.30
2023-03-29T23:33:27.950Z,3.60
2023-03-29T23:37:16.927Z,4.00
2023-03-29T23:41:09.126Z,3.80
2023-03-29T23:44:58.442Z,3.40
2023-03-29T23:48:47.399Z,3.60
2023-03-29T23:52:36.885Z,3.00
2023-03-29T23:56:25.932Z,4.00
